sensor_id;sensor_type;location;lat;lon;timestamp;P1;durP1;ratioP1;P2;durP2;ratioP2
53267;SDS011;39156;51.176;6.738;2024-03-02T00:03:54;42.63;;;40.42;;
53267;SDS011;39156;51.176;6.738;2024-03-02T00:06:21;45.38;;;43.08;;
53267;SDS011;39156;51.176;6.738;2024-03-02T00:08:49;42.92;;;40.72;;
53267;SDS011;39156;51.176;6.738;2024-03-02T00:11:17;42.53;;;40.33;;
53267;SDS011;39156;51.176;6.738;2024-03-02T00:13:44;43.47;;;41.25;;
53267;SDS011;39156;51.176;6.738;2024-03-02T00:16:12;43.17;;;40.80;;
53267;SDS011;39156;51.176;6.738;2024-03-02T00:18:38;42.15;;;39.95;;
53267;SDS011;39156;51.176;6.738;2024-03-02T00:21:06;43.50;;;41.30;;
53267;SDS011;39156;51.176;6.738;2024-03-02T00:23:35;42.00;;;39.80;;
53267;SDS011;39156;51.176;6.738;2024-03-02T00:26:03;43.90;;;41.70;;
53267;SDS011;39156;51.176;6.738;2024-03-02T00:28:31;45.58;;;43.20;;
53267;SDS011;39156;51.176;6.738;2024-03-02T00:31:01;46.35;;;43.95;;
53267;SDS011;39156;51.176;6.738;2024-03-02T00:33:31;43.55;;;41.25;;
53267;SDS011;39156;51.176;6.738;2024-03-02T00:36:00;43.38;;;40.67;;
53267;SDS011;39156;51.176;6.738;2024-03-02T00:38:29;45.08;;;42.67;;
53267;SDS011;39156;51.176;6.738;2024-03-02T00:40:57;43.63;;;41.33;;
53267;SDS011;39156;51.176;6.738;2024-03-02T00:43:35;41.90;;;39.70;;
53267;SDS011;39156;51.176;6.738;2024-03-02T00:46:13;44.92;;;42.63;;
53267;SDS011;39156;51.176;6.738;2024-03-02T00:48:47;42.78;;;40.63;;
53267;SDS011;39156;51.176;6.738;2024-03-02T00:51:20;43.90;;;41.60;;
53267;SDS011;39156;51.176;6.738;2024-03-02T00:53:48;42.80;;;40.40;;
53267;SDS011;39156;51.176;6.738;2024-03-02T00:56:15;42.70;;;40.50;;
53267;SDS011;39156;51.176;6.738;2024-03-02T01:01:10;44.30;;;42.00;;
53267;SDS011;39156;51.176;6.738;2024-03-02T01:03:37;44.95;;;42.65;;
53267;SDS011;39156;51.176;6.738;2024-03-02T01:06:04;44.72;;;42.33;;
53267;SDS011;39156;51.176;6.738;2024-03-02T01:08:32;43.05;;;40.85;;
53267;SDS011;39156;51.176;6.738;2024-03-02T01:10:59;42.28;;;40.08;;
53267;SDS011;39156;51.176;6.738;2024-03-02T01:13:26;43.83;;;41.53;;
53267;SDS011;39156;51.176;6.738;2024-03-02T01:15:54;43.20;;;41.00;;
53267;SDS011;39156;51.176;6.738;2024-03-02T01:18:21;46.30;;;43.75;;
53267;SDS011;39156;51.176;6.738;2024-03-02T01:23:16;42.88;;;40.65;;
53267;SDS011;39156;51.176;6.738;2024-03-02T01:25:44;42.30;;;40.05;;
53267;SDS011;39156;51.176;6.738;2024-03-02T01:28:11;43.88;;;41.65;;
53267;SDS011;39156;51.176;6.738;2024-03-02T01:30:38;43.67;;;41.38;;
53267;SDS011;39156;51.176;6.738;2024-03-02T01:33:06;42.80;;;40.67;;
53267;SDS011;39156;51.176;6.738;2024-03-02T01:35:33;42.95;;;40.75;;
53267;SDS011;39156;51.176;6.738;2024-03-02T01:38:01;42.30;;;40.10;;
53267;SDS011;39156;51.176;6.738;2024-03-02T01:40:27;44.20;;;41.92;;
53267;SDS011;39156;51.176;6.738;2024-03-02T01:42:55;43.97;;;41.70;;
53267;SDS011;39156;51.176;6.738;2024-03-02T01:45:23;45.15;;;42.83;;
53267;SDS011;39156;51.176;6.738;2024-03-02T01:47:50;43.47;;;41.28;;
53267;SDS011;39156;51.176;6.738;2024-03-02T01:50:25;42.08;;;39.88;;
53267;SDS011;39156;51.176;6.738;2024-03-02T01:52:53;42.55;;;40.35;;
53267;SDS011;39156;51.176;6.738;2024-03-02T01:57:47;44.17;;;41.97;;
53267;SDS011;39156;51.176;6.738;2024-03-02T02:00:15;44.92;;;42.70;;
53267;SDS011;39156;51.176;6.738;2024-03-02T02:02:43;43.53;;;41.33;;
53267;SDS011;39156;51.176;6.738;2024-03-02T02:07:39;43.78;;;41.58;;
53267;SDS011;39156;51.176;6.738;2024-03-02T02:10:07;44.50;;;42.10;;
53267;SDS011;39156;51.176;6.738;2024-03-02T02:12:34;45.05;;;42.65;;
53267;SDS011;39156;51.176;6.738;2024-03-02T02:15:02;44.38;;;42.08;;
53267;SDS011;39156;51.176;6.738;2024-03-02T02:17:29;43.15;;;40.95;;
53267;SDS011;39156;51.176;6.738;2024-03-02T02:19:56;45.05;;;42.75;;
53267;SDS011;39156;51.176;6.738;2024-03-02T02:22:24;43.92;;;41.65;;
53267;SDS011;39156;51.176;6.738;2024-03-02T02:24:51;46.15;;;43.72;;
53267;SDS011;39156;51.176;6.738;2024-03-02T02:27:17;45.55;;;43.13;;
53267;SDS011;39156;51.176;6.738;2024-03-02T02:29:44;43.08;;;40.90;;
53267;SDS011;39156;51.176;6.738;2024-03-02T02:32:11;43.47;;;41.28;;
53267;SDS011;39156;51.176;6.738;2024-03-02T02:34:38;45.13;;;42.83;;
53267;SDS011;39156;51.176;6.738;2024-03-02T02:37:05;43.40;;;41.10;;
53267;SDS011;39156;51.176;6.738;2024-03-02T02:39:33;43.40;;;41.08;;
53267;SDS011;39156;51.176;6.738;2024-03-02T02:42:00;41.33;;;39.22;;
53267;SDS011;39156;51.176;6.738;2024-03-02T02:44:27;44.22;;;42.03;;
53267;SDS011;39156;51.176;6.738;2024-03-02T02:46:54;41.90;;;39.80;;
53267;SDS011;39156;51.176;6.738;2024-03-02T02:51:48;45.20;;;42.90;;
53267;SDS011;39156;51.176;6.738;2024-03-02T02:54:15;42.90;;;40.72;;
53267;SDS011;39156;51.176;6.738;2024-03-02T02:56:43;45.17;;;42.83;;
53267;SDS011;39156;51.176;6.738;2024-03-02T02:59:10;43.30;;;41.00;;
53267;SDS011;39156;51.176;6.738;2024-03-02T03:01:37;44.00;;;41.78;;
53267;SDS011;39156;51.176;6.738;2024-03-02T03:04:04;42.47;;;40.17;;
53267;SDS011;39156;51.176;6.738;2024-03-02T03:06:31;44.03;;;41.83;;
53267;SDS011;39156;51.176;6.738;2024-03-02T03:08:58;41.08;;;38.97;;
53267;SDS011;39156;51.176;6.738;2024-03-02T03:11:25;43.63;;;41.35;;
53267;SDS011;39156;51.176;6.738;2024-03-02T03:13:53;42.90;;;40.50;;
53267;SDS011;39156;51.176;6.738;2024-03-02T03:16:20;43.85;;;41.58;;
53267;SDS011;39156;51.176;6.738;2024-03-02T03:18:47;42.60;;;40.47;;
53267;SDS011;39156;51.176;6.738;2024-03-02T03:21:16;44.47;;;42.17;;
53267;SDS011;39156;51.176;6.738;2024-03-02T03:23:43;44.90;;;42.60;;
53267;SDS011;39156;51.176;6.738;2024-03-02T03:26:10;42.05;;;39.83;;
53267;SDS011;39156;51.176;6.738;2024-03-02T03:28:37;43.67;;;41.38;;
53267;SDS011;39156;51.176;6.738;2024-03-02T03:31:05;45.83;;;43.53;;
53267;SDS011;39156;51.176;6.738;2024-03-02T03:33:32;43.90;;;41.60;;
53267;SDS011;39156;51.176;6.738;2024-03-02T03:38:28;46.55;;;44.08;;
53267;SDS011;39156;51.176;6.738;2024-03-02T03:40:55;44.03;;;41.72;;
53267;SDS011;39156;51.176;6.738;2024-03-02T03:43:22;41.47;;;39.28;;
53267;SDS011;39156;51.176;6.738;2024-03-02T03:45:48;44.20;;;41.90;;
53267;SDS011;39156;51.176;6.738;2024-03-02T03:48:17;41.47;;;39.28;;
53267;SDS011;39156;51.176;6.738;2024-03-02T03:50:43;43.58;;;41.20;;
53267;SDS011;39156;51.176;6.738;2024-03-02T03:53:10;42.78;;;40.55;;
53267;SDS011;39156;51.176;6.738;2024-03-02T03:55:39;43.28;;;41.08;;
53267;SDS011;39156;51.176;6.738;2024-03-02T03:58:06;43.17;;;40.97;;
53267;SDS011;39156;51.176;6.738;2024-03-02T04:00:33;44.58;;;42.17;;
53267;SDS011;39156;51.176;6.738;2024-03-02T04:03:00;42.70;;;40.50;;
53267;SDS011;39156;51.176;6.738;2024-03-02T04:05:28;41.15;;;39.05;;
53267;SDS011;39156;51.176;6.738;2024-03-02T04:07:55;41.95;;;39.75;;
53267;SDS011;39156;51.176;6.738;2024-03-02T04:10:22;43.35;;;41.15;;
53267;SDS011;39156;51.176;6.738;2024-03-02T04:12:49;43.78;;;41.38;;
53267;SDS011;39156;51.176;6.738;2024-03-02T04:15:16;42.20;;;40.10;;
53267;SDS011;39156;51.176;6.738;2024-03-02T04:17:44;42.60;;;40.50;;
53267;SDS011;39156;51.176;6.738;2024-03-02T04:20:11;43.40;;;41.13;;
53267;SDS011;39156;51.176;6.738;2024-03-02T04:22:39;44.17;;;41.92;;
53267;SDS011;39156;51.176;6.738;2024-03-02T04:25:07;43.97;;;41.75;;
53267;SDS011;39156;51.176;6.738;2024-03-02T04:27:34;43.70;;;41.40;;
53267;SDS011;39156;51.176;6.738;2024-03-02T04:30:01;44.28;;;41.88;;
53267;SDS011;39156;51.176;6.738;2024-03-02T04:32:30;43.05;;;40.85;;
53267;SDS011;39156;51.176;6.738;2024-03-02T04:34:57;42.10;;;40.00;;
53267;SDS011;39156;51.176;6.738;2024-03-02T04:37:24;46.13;;;43.63;;
53267;SDS011;39156;51.176;6.738;2024-03-02T04:39:52;44.15;;;41.85;;
53267;SDS011;39156;51.176;6.738;2024-03-02T04:42:19;43.72;;;41.42;;
53267;SDS011;39156;51.176;6.738;2024-03-02T04:44:46;44.10;;;41.72;;
53267;SDS011;39156;51.176;6.738;2024-03-02T04:47:13;44.65;;;42.35;;
53267;SDS011;39156;51.176;6.738;2024-03-02T04:49:40;43.60;;;41.30;;
53267;SDS011;39156;51.176;6.738;2024-03-02T04:52:06;44.63;;;42.40;;
53267;SDS011;39156;51.176;6.738;2024-03-02T04:54:33;43.08;;;40.80;;
53267;SDS011;39156;51.176;6.738;2024-03-02T04:57:22;44.50;;;42.20;;
53267;SDS011;39156;51.176;6.738;2024-03-02T04:59:49;41.28;;;39.17;;
53267;SDS011;39156;51.176;6.738;2024-03-02T05:02:15;44.28;;;41.97;;
53267;SDS011;39156;51.176;6.738;2024-03-02T05:04:42;43.00;;;40.80;;
53267;SDS011;39156;51.176;6.738;2024-03-02T05:07:09;42.85;;;40.60;;
53267;SDS011;39156;51.176;6.738;2024-03-02T05:09:36;43.88;;;41.58;;
53267;SDS011;39156;51.176;6.738;2024-03-02T05:12:03;43.55;;;41.22;;
53267;SDS011;39156;51.176;6.738;2024-03-02T05:14:55;42.88;;;40.67;;
53267;SDS011;39156;51.176;6.738;2024-03-02T05:17:22;44.28;;;41.80;;
53267;SDS011;39156;51.176;6.738;2024-03-02T05:19:49;43.30;;;41.10;;
53267;SDS011;39156;51.176;6.738;2024-03-02T05:22:16;44.78;;;42.38;;
53267;SDS011;39156;51.176;6.738;2024-03-02T05:24:43;42.92;;;40.70;;
53267;SDS011;39156;51.176;6.738;2024-03-02T05:27:10;44.47;;;42.15;;
53267;SDS011;39156;51.176;6.738;2024-03-02T05:29:36;43.67;;;41.38;;
53267;SDS011;39156;51.176;6.738;2024-03-02T05:32:05;42.80;;;40.60;;
53267;SDS011;39156;51.176;6.738;2024-03-02T05:34:32;45.10;;;42.80;;
53267;SDS011;39156;51.176;6.738;2024-03-02T05:37:00;44.95;;;42.55;;
53267;SDS011;39156;51.176;6.738;2024-03-02T05:39:27;43.30;;;41.10;;
53267;SDS011;39156;51.176;6.738;2024-03-02T05:41:54;44.83;;;42.42;;
53267;SDS011;39156;51.176;6.738;2024-03-02T05:44:21;45.22;;;42.92;;
53267;SDS011;39156;51.176;6.738;2024-03-02T05:46:48;44.10;;;41.80;;
53267;SDS011;39156;51.176;6.738;2024-03-02T05:49:16;45.28;;;42.78;;
53267;SDS011;39156;51.176;6.738;2024-03-02T05:51:43;43.25;;;41.05;;
53267;SDS011;39156;51.176;6.738;2024-03-02T05:54:09;46.30;;;44.00;;
53267;SDS011;39156;51.176;6.738;2024-03-02T05:56:36;43.92;;;41.67;;
53267;SDS011;39156;51.176;6.738;2024-03-02T05:59:03;43.03;;;40.83;;
53267;SDS011;39156;51.176;6.738;2024-03-02T06:01:37;44.03;;;41.63;;
53267;SDS011;39156;51.176;6.738;2024-03-02T06:06:33;45.53;;;43.20;;
53267;SDS011;39156;51.176;6.738;2024-03-02T06:08:59;45.13;;;42.72;;
53267;SDS011;39156;51.176;6.738;2024-03-02T06:11:27;43.80;;;41.50;;
53267;SDS011;39156;51.176;6.738;2024-03-02T06:13:54;44.20;;;41.92;;
53267;SDS011;39156;51.176;6.738;2024-03-02T06:16:21;45.50;;;43.17;;
53267;SDS011;39156;51.176;6.738;2024-03-02T06:18:48;45.33;;;43.03;;
53267;SDS011;39156;51.176;6.738;2024-03-02T06:21:15;45.05;;;42.75;;
53267;SDS011;39156;51.176;6.738;2024-03-02T06:23:44;44.25;;;41.75;;
53267;SDS011;39156;51.176;6.738;2024-03-02T06:26:11;46.00;;;43.45;;
53267;SDS011;39156;51.176;6.738;2024-03-02T06:28:37;45.70;;;43.33;;
53267;SDS011;39156;51.176;6.738;2024-03-02T06:31:04;44.92;;;42.53;;
53267;SDS011;39156;51.176;6.738;2024-03-02T06:33:31;46.22;;;43.78;;
53267;SDS011;39156;51.176;6.738;2024-03-02T06:35:58;46.22;;;43.83;;
53267;SDS011;39156;51.176;6.738;2024-03-02T06:38:25;45.15;;;42.75;;
53267;SDS011;39156;51.176;6.738;2024-03-02T06:40:54;43.75;;;41.50;;
53267;SDS011;39156;51.176;6.738;2024-03-02T06:43:21;46.00;;;43.70;;
53267;SDS011;39156;51.176;6.738;2024-03-02T06:45:48;45.13;;;42.72;;
53267;SDS011;39156;51.176;6.738;2024-03-02T06:48:15;45.75;;;43.45;;
53267;SDS011;39156;51.176;6.738;2024-03-02T06:50:44;44.70;;;42.35;;
53267;SDS011;39156;51.176;6.738;2024-03-02T06:53:11;43.22;;;40.92;;
53267;SDS011;39156;51.176;6.738;2024-03-02T06:55:38;44.13;;;41.83;;
53267;SDS011;39156;51.176;6.738;2024-03-02T06:58:07;43.60;;;41.40;;
53267;SDS011;39156;51.176;6.738;2024-03-02T07:00:33;46.33;;;43.90;;
53267;SDS011;39156;51.176;6.738;2024-03-02T07:03:01;44.97;;;42.55;;
53267;SDS011;39156;51.176;6.738;2024-03-02T07:07:55;44.00;;;41.70;;
53267;SDS011;39156;51.176;6.738;2024-03-02T07:10:22;44.58;;;42.28;;
53267;SDS011;39156;51.176;6.738;2024-03-02T07:12:49;42.63;;;40.45;;
53267;SDS011;39156;51.176;6.738;2024-03-02T07:15:17;44.35;;;42.05;;
53267;SDS011;39156;51.176;6.738;2024-03-02T07:18:02;44.67;;;42.25;;
53267;SDS011;39156;51.176;6.738;2024-03-02T07:20:30;45.25;;;42.80;;
53267;SDS011;39156;51.176;6.738;2024-03-02T07:22:56;43.42;;;41.13;;
53267;SDS011;39156;51.176;6.738;2024-03-02T07:25:23;43.00;;;40.63;;
53267;SDS011;39156;51.176;6.738;2024-03-02T07:27:50;44.08;;;41.65;;
53267;SDS011;39156;51.176;6.738;2024-03-02T07:30:19;44.88;;;42.55;;
53267;SDS011;39156;51.176;6.738;2024-03-02T07:32:46;44.35;;;41.78;;
53267;SDS011;39156;51.176;6.738;2024-03-02T07:35:16;42.25;;;40.05;;
53267;SDS011;39156;51.176;6.738;2024-03-02T07:37:43;42.47;;;40.25;;
53267;SDS011;39156;51.176;6.738;2024-03-02T07:40:10;44.45;;;42.05;;
53267;SDS011;39156;51.176;6.738;2024-03-02T07:42:38;43.60;;;41.30;;
53267;SDS011;39156;51.176;6.738;2024-03-02T07:45:06;42.35;;;40.05;;
53267;SDS011;39156;51.176;6.738;2024-03-02T07:47:35;43.70;;;41.28;;
53267;SDS011;39156;51.176;6.738;2024-03-02T07:50:02;43.50;;;41.20;;
53267;SDS011;39156;51.176;6.738;2024-03-02T07:52:31;42.97;;;40.60;;
53267;SDS011;39156;51.176;6.738;2024-03-02T07:54:58;42.53;;;40.22;;
53267;SDS011;39156;51.176;6.738;2024-03-02T07:57:25;42.97;;;40.78;;
53267;SDS011;39156;51.176;6.738;2024-03-02T07:59:51;44.08;;;41.75;;
53267;SDS011;39156;51.176;6.738;2024-03-02T08:02:18;42.92;;;40.67;;
53267;SDS011;39156;51.176;6.738;2024-03-02T08:04:47;42.85;;;40.65;;
53267;SDS011;39156;51.176;6.738;2024-03-02T08:07:14;42.30;;;40.10;;
53267;SDS011;39156;51.176;6.738;2024-03-02T08:09:43;43.47;;;41.08;;
53267;SDS011;39156;51.176;6.738;2024-03-02T08:12:10;41.17;;;39.03;;
53267;SDS011;39156;51.176;6.738;2024-03-02T08:14:37;42.22;;;40.03;;
53267;SDS011;39156;51.176;6.738;2024-03-02T08:17:05;40.83;;;38.65;;
53267;SDS011;39156;51.176;6.738;2024-03-02T08:19:34;38.30;;;36.30;;
53267;SDS011;39156;51.176;6.738;2024-03-02T08:22:03;40.00;;;37.90;;
53267;SDS011;39156;51.176;6.738;2024-03-02T08:24:30;36.42;;;34.50;;
53267;SDS011;39156;51.176;6.738;2024-03-02T08:26:57;38.10;;;36.13;;
53267;SDS011;39156;51.176;6.738;2024-03-02T08:29:25;36.97;;;35.08;;
53267;SDS011;39156;51.176;6.738;2024-03-02T08:31:52;38.67;;;36.67;;
53267;SDS011;39156;51.176;6.738;2024-03-02T08:34:19;37.55;;;35.65;;
53267;SDS011;39156;51.176;6.738;2024-03-02T08:36:46;38.95;;;36.58;;
53267;SDS011;39156;51.176;6.738;2024-03-02T08:39:14;39.13;;;36.92;;
53267;SDS011;39156;51.176;6.738;2024-03-02T08:41:41;38.22;;;36.22;;
53267;SDS011;39156;51.176;6.738;2024-03-02T08:44:09;40.10;;;37.67;;
53267;SDS011;39156;51.176;6.738;2024-03-02T08:46:37;38.33;;;36.33;;
53267;SDS011;39156;51.176;6.738;2024-03-02T08:49:04;38.55;;;36.45;;
53267;SDS011;39156;51.176;6.738;2024-03-02T08:51:32;36.75;;;34.65;;
53267;SDS011;39156;51.176;6.738;2024-03-02T08:53:59;36.03;;;34.10;;
53267;SDS011;39156;51.176;6.738;2024-03-02T08:58:54;35.17;;;33.38;;
53267;SDS011;39156;51.176;6.738;2024-03-02T09:01:20;34.70;;;32.90;;
53267;SDS011;39156;51.176;6.738;2024-03-02T09:03:47;37.10;;;35.10;;
53267;SDS011;39156;51.176;6.738;2024-03-02T09:06:15;35.22;;;33.22;;
53267;SDS011;39156;51.176;6.738;2024-03-02T09:08:42;32.75;;;31.05;;
53267;SDS011;39156;51.176;6.738;2024-03-02T09:11:10;34.00;;;32.13;;
53267;SDS011;39156;51.176;6.738;2024-03-02T09:13:38;33.97;;;32.15;;
53267;SDS011;39156;51.176;6.738;2024-03-02T09:16:06;34.05;;;32.25;;
53267;SDS011;39156;51.176;6.738;2024-03-02T09:18:35;32.35;;;30.65;;
53267;SDS011;39156;51.176;6.738;2024-03-02T09:21:03;32.47;;;30.85;;
53267;SDS011;39156;51.176;6.738;2024-03-02T09:23:30;31.65;;;30.05;;
53267;SDS011;39156;51.176;6.738;2024-03-02T09:25:57;32.97;;;31.17;;
53267;SDS011;39156;51.176;6.738;2024-03-02T09:28:24;32.78;;;31.13;;
53267;SDS011;39156;51.176;6.738;2024-03-02T09:30:52;31.73;;;30.13;;
53267;SDS011;39156;51.176;6.738;2024-03-02T09:33:19;32.67;;;31.08;;
53267;SDS011;39156;51.176;6.738;2024-03-02T09:35:47;32.65;;;30.92;;
53267;SDS011;39156;51.176;6.738;2024-03-02T09:38:14;32.00;;;30.40;;
53267;SDS011;39156;51.176;6.738;2024-03-02T09:40:41;32.58;;;30.88;;
53267;SDS011;39156;51.176;6.738;2024-03-02T09:43:09;33.58;;;31.88;;
53267;SDS011;39156;51.176;6.738;2024-03-02T09:45:36;32.28;;;30.58;;
53267;SDS011;39156;51.176;6.738;2024-03-02T09:48:05;31.67;;;29.98;;
53267;SDS011;39156;51.176;6.738;2024-03-02T09:50:33;32.80;;;31.10;;
53267;SDS011;39156;51.176;6.738;2024-03-02T09:53:00;31.88;;;30.27;;
53267;SDS011;39156;51.176;6.738;2024-03-02T09:55:27;31.67;;;29.98;;
53267;SDS011;39156;51.176;6.738;2024-03-02T09:57:54;31.63;;;29.95;;
53267;SDS011;39156;51.176;6.738;2024-03-02T10:00:21;32.63;;;30.63;;
53267;SDS011;39156;51.176;6.738;2024-03-02T10:02:48;33.55;;;31.75;;
53267;SDS011;39156;51.176;6.738;2024-03-02T10:05:24;32.13;;;30.52;;
53267;SDS011;39156;51.176;6.738;2024-03-02T10:08:02;35.00;;;31.98;;
53267;SDS011;39156;51.176;6.738;2024-03-02T10:10:36;32.53;;;30.63;;
53267;SDS011;39156;51.176;6.738;2024-03-02T10:13:06;32.10;;;30.40;;
53267;SDS011;39156;51.176;6.738;2024-03-02T10:15:35;32.60;;;30.60;;
53267;SDS011;39156;51.176;6.738;2024-03-02T10:18:03;31.05;;;29.45;;
53267;SDS011;39156;51.176;6.738;2024-03-02T10:20:32;31.85;;;30.15;;
53267;SDS011;39156;51.176;6.738;2024-03-02T10:23:09;31.13;;;29.52;;
53267;SDS011;39156;51.176;6.738;2024-03-02T10:25:37;32.10;;;30.50;;
53267;SDS011;39156;51.176;6.738;2024-03-02T10:28:04;32.67;;;30.98;;
53267;SDS011;39156;51.176;6.738;2024-03-02T10:30:31;31.88;;;30.17;;
53267;SDS011;39156;51.176;6.738;2024-03-02T10:32:59;31.58;;;29.88;;
53267;SDS011;39156;51.176;6.738;2024-03-02T10:35:27;32.67;;;30.88;;
53267;SDS011;39156;51.176;6.738;2024-03-02T10:37:57;31.90;;;30.20;;
53267;SDS011;39156;51.176;6.738;2024-03-02T10:40:26;31.63;;;29.83;;
53267;SDS011;39156;51.176;6.738;2024-03-02T10:42:53;32.30;;;30.70;;
53267;SDS011;39156;51.176;6.738;2024-03-02T10:45:21;32.58;;;30.77;;
53267;SDS011;39156;51.176;6.738;2024-03-02T10:47:48;33.28;;;31.58;;
53267;SDS011;39156;51.176;6.738;2024-03-02T10:50:16;32.40;;;30.70;;
53267;SDS011;39156;51.176;6.738;2024-03-02T10:52:43;34.17;;;32.35;;
53267;SDS011;39156;51.176;6.738;2024-03-02T10:55:12;32.22;;;30.35;;
53267;SDS011;39156;51.176;6.738;2024-03-02T10:57:41;33.47;;;31.77;;
53267;SDS011;39156;51.176;6.738;2024-03-02T11:00:11;32.72;;;31.02;;
53267;SDS011;39156;51.176;6.738;2024-03-02T11:02:46;34.38;;;32.42;;
53267;SDS011;39156;51.176;6.738;2024-03-02T11:05:19;34.22;;;32.22;;
53267;SDS011;39156;51.176;6.738;2024-03-02T11:07:53;35.05;;;33.28;;
53267;SDS011;39156;51.176;6.738;2024-03-02T11:10:30;34.00;;;32.25;;
53267;SDS011;39156;51.176;6.738;2024-03-02T11:13:02;36.40;;;34.45;;
53267;SDS011;39156;51.176;6.738;2024-03-02T11:15:32;34.45;;;32.55;;
53267;SDS011;39156;51.176;6.738;2024-03-02T11:18:03;36.50;;;34.60;;
53267;SDS011;39156;51.176;6.738;2024-03-02T11:20:33;35.22;;;33.40;;
53267;SDS011;39156;51.176;6.738;2024-03-02T11:23:04;36.85;;;34.95;;
53267;SDS011;39156;51.176;6.738;2024-03-02T11:25:34;37.83;;;35.72;;
53267;SDS011;39156;51.176;6.738;2024-03-02T11:28:02;37.38;;;35.38;;
53267;SDS011;39156;51.176;6.738;2024-03-02T11:30:48;37.58;;;35.67;;
53267;SDS011;39156;51.176;6.738;2024-03-02T11:33:18;38.42;;;36.42;;
53267;SDS011;39156;51.176;6.738;2024-03-02T11:35:54;39.08;;;36.97;;
53267;SDS011;39156;51.176;6.738;2024-03-02T11:38:22;37.85;;;35.83;;
53267;SDS011;39156;51.176;6.738;2024-03-02T11:40:51;39.83;;;37.72;;
53267;SDS011;39156;51.176;6.738;2024-03-02T11:43:18;38.83;;;36.83;;
53267;SDS011;39156;51.176;6.738;2024-03-02T11:45:46;36.50;;;34.60;;
53267;SDS011;39156;51.176;6.738;2024-03-02T11:48:15;37.83;;;35.80;;
53267;SDS011;39156;51.176;6.738;2024-03-02T11:50:42;38.80;;;36.60;;
53267;SDS011;39156;51.176;6.738;2024-03-02T11:53:14;38.13;;;36.03;;
53267;SDS011;39156;51.176;6.738;2024-03-02T11:55:41;39.63;;;37.28;;
53267;SDS011;39156;51.176;6.738;2024-03-02T11:58:12;38.17;;;36.17;;
53267;SDS011;39156;51.176;6.738;2024-03-02T12:00:40;38.33;;;36.22;;
53267;SDS011;39156;51.176;6.738;2024-03-02T12:03:07;38.03;;;35.83;;
53267;SDS011;39156;51.176;6.738;2024-03-02T12:05:39;36.83;;;34.83;;
53267;SDS011;39156;51.176;6.738;2024-03-02T12:08:06;37.15;;;35.25;;
53267;SDS011;39156;51.176;6.738;2024-03-02T12:10:35;39.17;;;37.08;;
53267;SDS011;39156;51.176;6.738;2024-03-02T12:13:03;37.22;;;35.33;;
53267;SDS011;39156;51.176;6.738;2024-03-02T12:15:34;38.10;;;36.10;;
53267;SDS011;39156;51.176;6.738;2024-03-02T12:18:02;37.33;;;35.33;;
53267;SDS011;39156;51.176;6.738;2024-03-02T12:20:31;39.15;;;37.15;;
53267;SDS011;39156;51.176;6.738;2024-03-02T12:22:59;39.63;;;37.53;;
53267;SDS011;39156;51.176;6.738;2024-03-02T12:25:27;38.75;;;36.75;;
53267;SDS011;39156;51.176;6.738;2024-03-02T12:27:58;37.58;;;35.67;;
53267;SDS011;39156;51.176;6.738;2024-03-02T12:30:27;38.17;;;36.17;;
53267;SDS011;39156;51.176;6.738;2024-03-02T12:32:58;39.95;;;37.85;;
53267;SDS011;39156;51.176;6.738;2024-03-02T12:35:25;36.92;;;34.92;;
53267;SDS011;39156;51.176;6.738;2024-03-02T12:37:53;36.65;;;34.75;;
53267;SDS011;39156;51.176;6.738;2024-03-02T12:40:21;37.55;;;35.65;;
53267;SDS011;39156;51.176;6.738;2024-03-02T12:42:48;37.85;;;35.95;;
53267;SDS011;39156;51.176;6.738;2024-03-02T12:45:16;36.03;;;34.10;;
53267;SDS011;39156;51.176;6.738;2024-03-02T12:47:48;37.33;;;35.40;;
53267;SDS011;39156;51.176;6.738;2024-03-02T12:50:18;36.92;;;35.03;;
53267;SDS011;39156;51.176;6.738;2024-03-02T12:52:50;38.40;;;36.15;;
53267;SDS011;39156;51.176;6.738;2024-03-02T12:55:19;37.13;;;35.22;;
53267;SDS011;39156;51.176;6.738;2024-03-02T12:57:49;37.75;;;35.85;;
53267;SDS011;39156;51.176;6.738;2024-03-02T13:00:17;37.10;;;35.13;;
53267;SDS011;39156;51.176;6.738;2024-03-02T13:02:45;36.83;;;34.92;;
53267;SDS011;39156;51.176;6.738;2024-03-02T13:05:13;40.47;;;38.45;;
53267;SDS011;39156;51.176;6.738;2024-03-02T13:10:09;37.45;;;35.55;;
53267;SDS011;39156;51.176;6.738;2024-03-02T13:15:03;38.67;;;36.67;;
53267;SDS011;39156;51.176;6.738;2024-03-02T13:17:34;38.25;;;36.25;;
53267;SDS011;39156;51.176;6.738;2024-03-02T13:20:01;37.47;;;35.50;;
53267;SDS011;39156;51.176;6.738;2024-03-02T13:22:33;38.85;;;36.85;;
53267;SDS011;39156;51.176;6.738;2024-03-02T13:25:01;38.00;;;36.10;;
53267;SDS011;39156;51.176;6.738;2024-03-02T13:27:29;40.00;;;37.95;;
53267;SDS011;39156;51.176;6.738;2024-03-02T13:29:56;40.83;;;38.72;;
53267;SDS011;39156;51.176;6.738;2024-03-02T13:32:23;36.83;;;34.92;;
53267;SDS011;39156;51.176;6.738;2024-03-02T13:34:51;39.97;;;37.97;;
53267;SDS011;39156;51.176;6.738;2024-03-02T13:37:18;37.38;;;35.47;;
53267;SDS011;39156;51.176;6.738;2024-03-02T13:39:45;38.95;;;36.97;;
53267;SDS011;39156;51.176;6.738;2024-03-02T13:47:10;38.92;;;36.92;;
53267;SDS011;39156;51.176;6.738;2024-03-02T13:49:37;38.75;;;36.20;;
53267;SDS011;39156;51.176;6.738;2024-03-02T13:52:08;37.55;;;35.55;;
53267;SDS011;39156;51.176;6.738;2024-03-02T13:54:38;37.63;;;35.63;;
53267;SDS011;39156;51.176;6.738;2024-03-02T13:57:05;38.03;;;36.03;;
53267;SDS011;39156;51.176;6.738;2024-03-02T13:59:33;37.97;;;36.08;;
53267;SDS011;39156;51.176;6.738;2024-03-02T14:02:01;36.30;;;34.50;;
53267;SDS011;39156;51.176;6.738;2024-03-02T14:04:29;37.10;;;35.17;;
53267;SDS011;39156;51.176;6.738;2024-03-02T14:06:56;40.05;;;38.05;;
53267;SDS011;39156;51.176;6.738;2024-03-02T14:11:50;39.75;;;37.75;;
53267;SDS011;39156;51.176;6.738;2024-03-02T14:14:17;36.58;;;34.67;;
53267;SDS011;39156;51.176;6.738;2024-03-02T14:16:46;38.00;;;36.10;;
53267;SDS011;39156;51.176;6.738;2024-03-02T14:19:13;39.67;;;37.67;;
53267;SDS011;39156;51.176;6.738;2024-03-02T14:21:40;38.15;;;36.20;;
53267;SDS011;39156;51.176;6.738;2024-03-02T14:26:34;38.40;;;36.50;;
53267;SDS011;39156;51.176;6.738;2024-03-02T14:29:01;39.85;;;37.80;;
53267;SDS011;39156;51.176;6.738;2024-03-02T14:33:57;37.70;;;35.80;;
53267;SDS011;39156;51.176;6.738;2024-03-02T14:36:24;39.60;;;37.60;;
53267;SDS011;39156;51.176;6.738;2024-03-02T14:38:52;39.00;;;37.00;;
53267;SDS011;39156;51.176;6.738;2024-03-02T14:41:19;38.60;;;36.67;;
53267;SDS011;39156;51.176;6.738;2024-03-02T14:43:46;39.25;;;37.25;;
53267;SDS011;39156;51.176;6.738;2024-03-02T14:46:14;39.13;;;37.13;;
53267;SDS011;39156;51.176;6.738;2024-03-02T14:48:42;38.00;;;36.10;;
53267;SDS011;39156;51.176;6.738;2024-03-02T14:51:13;40.25;;;38.08;;
53267;SDS011;39156;51.176;6.738;2024-03-02T14:53:40;38.22;;;36.22;;
53267;SDS011;39156;51.176;6.738;2024-03-02T14:56:07;39.13;;;37.17;;
53267;SDS011;39156;51.176;6.738;2024-03-02T14:58:34;38.58;;;36.58;;
53267;SDS011;39156;51.176;6.738;2024-03-02T15:01:02;36.17;;;34.38;;
53267;SDS011;39156;51.176;6.738;2024-03-02T15:03:30;38.60;;;36.60;;
53267;SDS011;39156;51.176;6.738;2024-03-02T15:05:57;40.75;;;38.55;;
53267;SDS011;39156;51.176;6.738;2024-03-02T15:08:26;36.53;;;34.63;;